KALI/ALI METAR and TAF weather

Enter ICAO airport designator
Station Type Date Time Source
KALI METAR 2019/04/21 21:53 UTC NOAA

KALI 212153Z AUTO 13018G28KT 10SM CLR 27/18 A2990 RMK AO2 PK WND 13030/2133 SLP124 T02720183


Station Type Date Time Source
KALI Decoded METAR 2019/04/21 21:53 UTC NOAA

ALICE INTERNATIONAL AIRPORT, TX, United States (KALI) 27-44N 098-01W 53M
Apr 21, 2019 - 05:53 PM EDT / 2019.04.21 2153 UTC
Wind: from the SE (130 degrees) at 21 MPH (18 KT) gusting to 32 MPH (28 KT):0
Visibility: 10 mile(s):0
Sky conditions: clear
Temperature: 81.0 F (27.2 C)
Dew Point: 64.9 F (18.3 C)
Relative Humidity: 58%
Pressure (altimeter): 29.9 in. Hg (1012 hPa)
ob: KALI 212153Z AUTO 13018G28KT 10SM CLR 27/18 A2990 RMK AO2 PK WND 13030/2133 SLP124 T02720183
cycle: 22

Station Type Date Time Source
KALI TAF 2019/04/21 18:24 UTC NOAA

TAF KALI 211722Z 2118/2218 17018G28KT P6SM BKN250
FM220200 14012G18KT P6SM SCT030 BKN250
TEMPO 2205/2207 BKN030 OVC250
FM220700 15008KT P6SM SCT015 BKN025 OVC200 WS020/17040KT
TEMPO 2208/2212 BKN015 OVC025
FM221400 16010G15KT P6SM BKN020 OVC150
FM221600 16015G25KT P6SM BKN030 OVC100

Example: see airport list